createdAt,value
2017-10-01T00:00:12.348Z,0
2017-10-01T00:00:52.849Z,0
2017-10-01T00:01:33.387Z,0
2017-10-01T00:02:13.918Z,0
2017-10-01T00:02:54.462Z,0
2017-10-01T00:03:34.972Z,0
2017-10-01T00:04:15.503Z,0
2017-10-01T00:04:56.029Z,0
2017-10-01T00:05:36.566Z,0
2017-10-01T00:06:17.104Z,0
2017-10-01T00:06:57.647Z,0
2017-10-01T00:07:38.204Z,0
2017-10-01T00:08:18.730Z,0
2017-10-01T00:08:59.257Z,0
2017-10-01T00:09:39.784Z,0
2017-10-01T00:10:20.306Z,0
2017-10-01T00:11:00.859Z,0
2017-10-01T00:11:41.411Z,0
2017-10-01T00:12:21.906Z,0
2017-10-01T00:13:02.495Z,0
2017-10-01T00:13:42.995Z,0
2017-10-01T00:14:23.533Z,0
2017-10-01T00:15:04.069Z,0
2017-10-01T00:15:44.596Z,0
2017-10-01T00:16:25.112Z,0
2017-10-01T00:17:05.652Z,0
2017-10-01T00:17:46.220Z,0
2017-10-01T00:18:26.744Z,0
2017-10-01T00:19:07.265Z,0
2017-10-01T00:19:47.775Z,0
2017-10-01T00:20:28.297Z,0
2017-10-01T00:21:08.823Z,0
2017-10-01T00:21:49.347Z,0
2017-10-01T00:22:29.867Z,0
2017-10-01T00:23:10.388Z,0
2017-10-01T00:23:50.944Z,0
2017-10-01T00:24:31.482Z,0
2017-10-01T00:25:11.986Z,0
2017-10-01T00:25:52.509Z,0
2017-10-01T00:26:33.039Z,0
2017-10-01T00:27:13.586Z,0
2017-10-01T00:27:54.103Z,0
2017-10-01T00:28:34.626Z,0
2017-10-01T00:29:15.168Z,0
2017-10-01T00:29:55.687Z,0
2017-10-01T00:30:36.226Z,0
2017-10-01T00:31:16.765Z,0
2017-10-01T00:31:57.260Z,0
2017-10-01T00:32:37.778Z,0
2017-10-01T00:33:18.302Z,0
2017-10-01T00:33:58.824Z,0
2017-10-01T00:34:39.339Z,0
2017-10-01T00:35:19.886Z,0
2017-10-01T00:36:00.407Z,0
2017-10-01T00:36:40.952Z,0
2017-10-01T00:37:21.481Z,0
2017-10-01T00:38:02.007Z,0
2017-10-01T00:38:42.551Z,0
2017-10-01T00:39:23.076Z,0
2017-10-01T00:40:03.594Z,0
2017-10-01T00:40:44.123Z,0
2017-10-01T00:41:24.645Z,0
2017-10-01T00:42:05.189Z,0
2017-10-01T00:42:45.708Z,0
2017-10-01T00:43:26.236Z,0
2017-10-01T00:44:06.765Z,0
2017-10-01T00:44:47.303Z,0
2017-10-01T00:45:27.840Z,0
2017-10-01T00:46:08.394Z,0
2017-10-01T00:46:48.899Z,0
2017-10-01T00:47:29.420Z,0
2017-10-01T00:48:09.955Z,0
2017-10-01T00:48:50.488Z,0
2017-10-01T00:49:31.022Z,0
2017-10-01T00:50:11.534Z,0
2017-10-01T00:50:52.061Z,0
2017-10-01T00:51:32.589Z,0
2017-10-01T00:52:13.150Z,0
2017-10-01T00:52:53.678Z,0
2017-10-01T00:53:34.216Z,0
2017-10-01T00:54:14.746Z,0
2017-10-01T00:54:55.297Z,0
2017-10-01T00:55:35.831Z,0
2017-10-01T00:56:16.351Z,0
2017-10-01T00:56:56.877Z,0
2017-10-01T00:57:37.409Z,0
2017-10-01T00:58:17.941Z,0
2017-10-01T00:58:58.470Z,0
2017-10-01T00:59:38.994Z,0
2017-10-01T01:00:19.528Z,0
2017-10-01T01:01:00.048Z,0
2017-10-01T01:01:40.557Z,0
2017-10-01T01:02:21.097Z,0
2017-10-01T01:03:01.629Z,0
2017-10-01T01:03:42.134Z,0
2017-10-01T01:04:22.659Z,0
2017-10-01T01:05:03.204Z,0
2017-10-01T01:05:43.720Z,0
2017-10-01T01:06:24.261Z,0
2017-10-01T01:07:04.774Z,0
2017-10-01T01:07:45.305Z,0
2017-10-01T01:08:25.857Z,0
2017-10-01T01:09:06.394Z,0
2017-10-01T01:09:46.893Z,0
2017-10-01T01:10:27.430Z,0
2017-10-01T01:11:07.938Z,0
2017-10-01T01:11:48.471Z,0
2017-10-01T01:12:28.986Z,0
2017-10-01T01:13:09.603Z,0
2017-10-01T01:13:50.128Z,0
2017-10-01T01:14:30.646Z,0
2017-10-01T01:15:11.159Z,0
2017-10-01T01:15:51.707Z,0
2017-10-01T01:16:32.231Z,0
2017-10-01T01:17:12.770Z,0
2017-10-01T01:17:53.290Z,0
2017-10-01T01:18:33.813Z,0
2017-10-01T01:19:14.351Z,0
2017-10-01T01:19:54.919Z,0
2017-10-01T01:20:35.457Z,0
2017-10-01T01:21:15.977Z,0
2017-10-01T01:21:56.498Z,0
2017-10-01T01:22:37.042Z,0
2017-10-01T01:23:17.563Z,0
2017-10-01T01:23:58.083Z,0
2017-10-01T01:24:38.612Z,0
2017-10-01T01:25:19.146Z,0
2017-10-01T01:25:59.671Z,0
2017-10-01T01:26:40.209Z,0
2017-10-01T01:27:20.717Z,0
2017-10-01T01:28:01.261Z,0
2017-10-01T01:28:41.759Z,0
2017-10-01T01:29:22.291Z,0
2017-10-01T01:30:02.793Z,0
2017-10-01T01:30:43.358Z,0
2017-10-01T01:31:23.880Z,0
2017-10-01T01:32:04.412Z,0
2017-10-01T01:32:44.940Z,0
2017-10-01T01:33:25.453Z,0
2017-10-01T01:34:05.965Z,0
2017-10-01T01:34:46.471Z,0
2017-10-01T01:35:26.995Z,0
2017-10-01T01:36:07.529Z,0
2017-10-01T01:36:48.062Z,0
2017-10-01T01:37:28.576Z,0
2017-10-01T01:38:09.108Z,0
2017-10-01T01:38:49.626Z,0
2017-10-01T01:39:30.159Z,0
2017-10-01T01:40:10.684Z,0
2017-10-01T01:40:51.218Z,0
2017-10-01T01:41:31.749Z,0
2017-10-01T01:42:12.286Z,0
2017-10-01T01:42:52.816Z,0
2017-10-01T01:43:33.355Z,0
2017-10-01T01:44:13.849Z,0
2017-10-01T01:44:54.402Z,0
2017-10-01T01:45:34.922Z,0
2017-10-01T01:46:15.474Z,0
2017-10-01T01:46:56.008Z,0
2017-10-01T01:47:36.533Z,0
2017-10-01T01:48:17.066Z,0
2017-10-01T01:48:57.600Z,0
2017-10-01T01:49:38.140Z,0
2017-10-01T01:50:18.677Z,0
2017-10-01T01:50:59.257Z,0
2017-10-01T01:51:39.788Z,0
2017-10-01T01:52:20.316Z,0
2017-10-01T01:53:00.844Z,0
2017-10-01T01:53:41.392Z,0
2017-10-01T01:54:21.911Z,0
2017-10-01T01:55:02.448Z,0
2017-10-01T01:55:42.975Z,0
2017-10-01T01:56:23.517Z,0
2017-10-01T01:57:04.034Z,0
2017-10-01T01:57:44.569Z,0
2017-10-01T01:58:25.099Z,0
2017-10-01T01:59:05.631Z,0
2017-10-01T01:59:46.168Z,0
2017-10-01T02:00:26.680Z,0
2017-10-01T02:01:07.212Z,0
2017-10-01T02:01:47.748Z,0
2017-10-01T02:02:28.270Z,0
2017-10-01T02:03:08.800Z,0
2017-10-01T02:03:49.324Z,0
2017-10-01T02:04:29.855Z,0
2017-10-01T02:05:10.384Z,0
2017-10-01T02:05:50.913Z,0
2017-10-01T02:06:31.439Z,0
2017-10-01T02:07:11.990Z,0
2017-10-01T02:07:52.506Z,0
2017-10-01T02:08:33.040Z,0
2017-10-01T02:09:13.577Z,0
2017-10-01T02:09:54.098Z,0
2017-10-01T02:10:34.628Z,0
2017-10-01T02:11:15.139Z,0
2017-10-01T02:11:55.681Z,0
2017-10-01T02:12:36.226Z,0
2017-10-01T02:13:16.752Z,0
2017-10-01T02:13:57.281Z,0
2017-10-01T02:14:37.815Z,0
2017-10-01T02:15:18.388Z,0
2017-10-01T02:15:58.904Z,0
2017-10-01T02:16:39.453Z,0
2017-10-01T02:17:19.988Z,0
2017-10-01T02:18:00.510Z,0
2017-10-01T02:18:41.062Z,0
2017-10-01T02:19:21.583Z,0
2017-10-01T02:20:02.115Z,0
2017-10-01T02:20:42.641Z,0
2017-10-01T02:21:23.187Z,0
2017-10-01T02:22:03.698Z,0
2017-10-01T02:22:44.218Z,0
2017-10-01T02:23:24.741Z,0
2017-10-01T02:24:05.251Z,0
2017-10-01T02:24:45.786Z,0
2017-10-01T02:25:26.308Z,0
2017-10-01T02:26:06.839Z,0
2017-10-01T02:26:47.360Z,0
2017-10-01T02:27:27.883Z,0
2017-10-01T02:28:08.396Z,0
2017-10-01T02:28:48.897Z,0
2017-10-01T02:29:29.415Z,0
2017-10-01T02:30:09.955Z,0
2017-10-01T02:30:50.461Z,0
2017-10-01T02:31:30.988Z,0
2017-10-01T02:32:11.521Z,0
2017-10-01T02:32:52.056Z,0
2017-10-01T02:33:32.594Z,0
2017-10-01T02:34:13.121Z,0
2017-10-01T02:34:53.650Z,0
2017-10-01T02:35:34.181Z,0
2017-10-01T02:36:14.702Z,0
2017-10-01T02:36:55.244Z,0
2017-10-01T02:37:35.757Z,0
2017-10-01T02:38:16.290Z,0
2017-10-01T02:38:56.808Z,0
2017-10-01T02:39:37.345Z,0
2017-10-01T02:40:17.903Z,0
2017-10-01T02:40:58.416Z,0
2017-10-01T02:41:38.944Z,0
2017-10-01T02:42:19.464Z,0
2017-10-01T02:43:00.001Z,0
2017-10-01T02:43:40.509Z,0
2017-10-01T02:44:21.071Z,0
2017-10-01T02:45:01.588Z,0
2017-10-01T02:45:42.130Z,0
2017-10-01T02:46:22.668Z,0
2017-10-01T02:47:03.194Z,0
2017-10-01T02:47:43.744Z,0
2017-10-01T02:48:24.248Z,0
2017-10-01T02:49:04.778Z,0
2017-10-01T02:49:45.293Z,0
2017-10-01T02:50:25.797Z,0
2017-10-01T02:51:06.344Z,0
2017-10-01T02:51:46.858Z,0
2017-10-01T02:52:27.381Z,0
2017-10-01T02:53:07.892Z,0
2017-10-01T02:53:48.418Z,0
2017-10-01T02:54:28.948Z,0
2017-10-01T02:55:09.495Z,0
2017-10-01T02:55:50.014Z,0
2017-10-01T02:56:30.559Z,0
2017-10-01T02:57:11.105Z,0
2017-10-01T02:57:51.633Z,0
2017-10-01T02:58:32.166Z,0
2017-10-01T02:59:12.674Z,0
2017-10-01T02:59:53.205Z,0
2017-10-01T03:00:33.734Z,0
2017-10-01T03:01:14.262Z,0
2017-10-01T03:01:54.785Z,0
2017-10-01T03:02:35.321Z,0
2017-10-01T03:03:15.835Z,0
2017-10-01T03:03:56.355Z,0
2017-10-01T03:04:36.872Z,0
2017-10-01T03:05:17.399Z,0
2017-10-01T03:05:57.939Z,0
2017-10-01T03:06:38.460Z,0
2017-10-01T03:07:18.986Z,0
2017-10-01T03:07:59.514Z,0
2017-10-01T03:08:40.034Z,0
2017-10-01T03:09:20.565Z,0
2017-10-01T03:10:01.094Z,0
2017-10-01T03:10:41.624Z,0
2017-10-01T03:11:22.159Z,0
2017-10-01T03:12:02.790Z,0
2017-10-01T03:12:43.333Z,0
2017-10-01T03:13:23.860Z,0
2017-10-01T03:14:04.364Z,0
2017-10-01T03:14:44.906Z,0
2017-10-01T03:15:25.449Z,0
2017-10-01T03:16:05.971Z,0
2017-10-01T03:16:46.483Z,0
2017-10-01T03:17:26.989Z,0
2017-10-01T03:18:07.527Z,0
2017-10-01T03:18:48.038Z,0
2017-10-01T03:19:28.566Z,0
2017-10-01T03:20:09.085Z,0
2017-10-01T03:20:49.622Z,0
2017-10-01T03:21:30.153Z,0
2017-10-01T03:22:10.667Z,0
2017-10-01T03:22:51.194Z,0
2017-10-01T03:23:31.740Z,0
2017-10-01T03:24:12.282Z,0
2017-10-01T03:24:52.799Z,0
2017-10-01T03:25:33.329Z,0
2017-10-01T03:26:13.857Z,0
2017-10-01T03:26:54.404Z,0
2017-10-01T03:27:34.957Z,0
2017-10-01T03:28:15.484Z,0
2017-10-01T03:28:55.994Z,0
2017-10-01T03:29:36.505Z,0
2017-10-01T03:30:17.062Z,0
2017-10-01T03:30:57.585Z,0
2017-10-01T03:31:38.104Z,0
2017-10-01T03:32:18.627Z,0
2017-10-01T03:32:59.153Z,0
2017-10-01T03:33:39.698Z,0
2017-10-01T03:34:20.208Z,0
2017-10-01T03:35:00.730Z,0
2017-10-01T03:35:41.255Z,0
2017-10-01T03:36:21.788Z,0
2017-10-01T03:37:02.363Z,0
2017-10-01T03:37:42.843Z,0
2017-10-01T03:38:23.357Z,0
2017-10-01T03:39:03.874Z,0
2017-10-01T03:39:44.392Z,0
2017-10-01T03:40:24.908Z,0
2017-10-01T03:41:05.432Z,0
2017-10-01T03:41:45.960Z,0
2017-10-01T03:42:26.509Z,0
2017-10-01T03:43:07.041Z,0
2017-10-01T03:43:47.602Z,0
2017-10-01T03:44:28.133Z,0
2017-10-01T03:45:08.663Z,0
2017-10-01T03:45:49.180Z,0
2017-10-01T03:46:29.709Z,0
2017-10-01T03:47:10.266Z,0
2017-10-01T03:47:50.786Z,0
2017-10-01T03:48:31.326Z,0
2017-10-01T03:49:11.855Z,0
2017-10-01T03:49:52.381Z,0
2017-10-01T03:50:32.903Z,0
2017-10-01T03:51:13.425Z,0
2017-10-01T03:51:53.966Z,0
2017-10-01T03:52:34.488Z,0
2017-10-01T03:53:15.018Z,0
2017-10-01T03:53:55.540Z,0
2017-10-01T03:54:36.051Z,0
2017-10-01T03:55:16.579Z,0
2017-10-01T03:55:57.087Z,0
2017-10-01T03:56:37.621Z,0
2017-10-01T03:57:18.164Z,0
2017-10-01T03:57:58.711Z,0
2017-10-01T03:58:39.233Z,0
2017-10-01T03:59:19.776Z,0
2017-10-01T04:00:00.294Z,0
2017-10-01T04:00:40.823Z,0
2017-10-01T04:01:21.350Z,0
2017-10-01T04:02:01.892Z,0
2017-10-01T04:02:42.429Z,0
2017-10-01T04:03:22.955Z,0
2017-10-01T04:04:03.485Z,0
2017-10-01T04:04:44.021Z,0
2017-10-01T04:05:24.558Z,0
2017-10-01T04:06:05.103Z,0
2017-10-01T04:06:45.603Z,0
2017-10-01T04:07:26.135Z,0
2017-10-01T04:08:06.659Z,0
2017-10-01T04:08:47.192Z,0
2017-10-01T04:09:27.716Z,0
2017-10-01T04:10:08.245Z,0
2017-10-01T04:10:48.774Z,0
2017-10-01T04:11:29.295Z,0
2017-10-01T04:12:09.805Z,0
2017-10-01T04:12:50.343Z,0
2017-10-01T04:13:30.877Z,0
2017-10-01T04:14:11.407Z,0
2017-10-01T04:14:51.990Z,0
2017-10-01T04:15:32.472Z,0
2017-10-01T04:16:13.015Z,0
2017-10-01T04:16:53.540Z,0
2017-10-01T04:17:34.069Z,0
2017-10-01T04:18:14.583Z,0
2017-10-01T04:18:55.135Z,0
2017-10-01T04:19:35.709Z,0
2017-10-01T04:20:16.225Z,0
2017-10-01T04:20:56.758Z,0
2017-10-01T04:21:37.280Z,0
2017-10-01T04:22:17.835Z,0
2017-10-01T04:22:58.366Z,0
2017-10-01T04:23:38.857Z,0
2017-10-01T04:24:19.371Z,0
2017-10-01T04:24:59.902Z,0
2017-10-01T04:25:40.427Z,0
2017-10-01T04:26:20.956Z,0
2017-10-01T04:27:01.490Z,0
2017-10-01T04:27:42.018Z,0
2017-10-01T04:28:22.529Z,0
2017-10-01T04:29:03.080Z,0
2017-10-01T04:29:43.601Z,0
2017-10-01T04:30:24.168Z,0
2017-10-01T04:31:04.694Z,0
2017-10-01T04:31:45.207Z,0
2017-10-01T04:32:25.724Z,0
2017-10-01T04:33:06.260Z,0
2017-10-01T04:33:46.781Z,0
2017-10-01T04:34:27.321Z,0
2017-10-01T04:35:07.837Z,0
2017-10-01T04:35:48.363Z,0
2017-10-01T04:36:28.888Z,0
2017-10-01T04:37:09.410Z,0
2017-10-01T04:37:49.954Z,0
2017-10-01T04:38:30.461Z,0
2017-10-01T04:39:11.002Z,0
2017-10-01T04:39:51.529Z,0
2017-10-01T04:40:32.056Z,0
2017-10-01T04:41:12.577Z,0
2017-10-01T04:41:53.084Z,0
2017-10-01T04:42:33.649Z,0
2017-10-01T04:43:14.171Z,0
2017-10-01T04:43:54.711Z,0
2017-10-01T04:44:35.228Z,0
2017-10-01T04:45:15.729Z,0
2017-10-01T04:45:56.277Z,0
2017-10-01T04:46:36.812Z,0
2017-10-01T04:47:17.344Z,0
2017-10-01T04:47:57.999Z,0
2017-10-01T04:48:38.521Z,0
2017-10-01T04:49:19.042Z,0
2017-10-01T04:49:59.577Z,0
2017-10-01T04:50:40.101Z,0
2017-10-01T04:51:20.635Z,0
2017-10-01T04:52:01.162Z,0
2017-10-01T04:52:41.669Z,0
2017-10-01T04:53:22.197Z,0
2017-10-01T04:54:02.722Z,0
2017-10-01T04:54:43.262Z,0
2017-10-01T04:55:23.792Z,0
2017-10-01T04:56:04.321Z,0
2017-10-01T04:56:44.850Z,0
2017-10-01T04:57:25.371Z,0
2017-10-01T04:58:05.914Z,0
2017-10-01T04:58:46.416Z,0
2017-10-01T04:59:26.946Z,0
2017-10-01T05:00:07.480Z,0
2017-10-01T05:00:48.031Z,0
2017-10-01T05:01:28.559Z,0
2017-10-01T05:02:09.080Z,0
2017-10-01T05:02:49.609Z,0
2017-10-01T05:03:30.139Z,0
2017-10-01T05:04:10.650Z,0
2017-10-01T05:04:51.190Z,0
2017-10-01T05:05:31.713Z,0
2017-10-01T05:06:12.254Z,0
2017-10-01T05:06:52.765Z,0
2017-10-01T05:07:33.290Z,0
2017-10-01T05:08:13.825Z,0
2017-10-01T05:08:54.357Z,0
2017-10-01T05:09:34.872Z,0
2017-10-01T05:10:15.402Z,0
2017-10-01T05:10:55.926Z,0
2017-10-01T05:11:36.451Z,0
2017-10-01T05:12:17.068Z,0
2017-10-01T05:12:57.601Z,0
2017-10-01T05:13:38.129Z,0
2017-10-01T05:14:18.657Z,0
2017-10-01T05:14:59.183Z,0
2017-10-01T05:15:39.723Z,0
2017-10-01T05:16:20.252Z,0
2017-10-01T05:17:00.802Z,0
2017-10-01T05:17:41.381Z,0
2017-10-01T05:18:21.892Z,0
2017-10-01T05:19:02.414Z,0
2017-10-01T05:19:42.935Z,0
2017-10-01T05:20:23.471Z,0
2017-10-01T05:21:04.007Z,0
2017-10-01T05:21:44.602Z,0
2017-10-01T05:22:25.136Z,0
2017-10-01T05:23:05.677Z,0
2017-10-01T05:23:46.171Z,0
2017-10-01T05:24:26.708Z,0
2017-10-01T05:25:07.227Z,0
2017-10-01T05:25:47.809Z,0
2017-10-01T05:26:28.352Z,0
2017-10-01T05:27:08.865Z,0
2017-10-01T05:27:49.413Z,0
2017-10-01T05:28:30.073Z,0
2017-10-01T05:29:10.595Z,0
2017-10-01T05:29:51.127Z,0
2017-10-01T05:30:31.641Z,0
2017-10-01T05:31:12.176Z,0
2017-10-01T05:31:52.674Z,5
2017-10-01T05:32:33.273Z,5
2017-10-01T05:33:13.774Z,5
2017-10-01T05:33:54.320Z,5
2017-10-01T05:34:34.840Z,5
2017-10-01T05:35:15.378Z,5
2017-10-01T05:35:55.911Z,5
2017-10-01T05:36:36.437Z,5
2017-10-01T05:37:17.026Z,5
2017-10-01T05:37:57.574Z,5
2017-10-01T05:38:38.104Z,5
2017-10-01T05:39:18.666Z,5
2017-10-01T05:39:59.164Z,5
2017-10-01T05:40:39.709Z,5
2017-10-01T05:41:20.243Z,10
2017-10-01T05:42:00.768Z,10
2017-10-01T05:42:41.290Z,10
2017-10-01T05:43:21.804Z,10
2017-10-01T05:44:02.342Z,10
2017-10-01T05:44:42.878Z,10
2017-10-01T05:45:23.385Z,10
2017-10-01T05:46:04.030Z,10
2017-10-01T05:46:44.556Z,15
2017-10-01T05:47:25.090Z,15
2017-10-01T05:48:05.625Z,15
2017-10-01T05:48:46.326Z,15
2017-10-01T05:49:27.062Z,15
2017-10-01T05:50:07.647Z,15
2017-10-01T05:50:48.178Z,20
2017-10-01T05:51:28.704Z,20
2017-10-01T05:52:09.237Z,20
2017-10-01T05:52:49.757Z,20
2017-10-01T05:53:30.294Z,20
2017-10-01T05:54:10.817Z,20
2017-10-01T05:54:51.331Z,20
2017-10-01T05:55:31.854Z,20
2017-10-01T05:56:12.459Z,25
2017-10-01T05:56:52.938Z,25
2017-10-01T05:57:33.472Z,25
2017-10-01T05:58:13.984Z,25
2017-10-01T05:58:54.508Z,25
2017-10-01T05:59:35.043Z,25
2017-10-01T06:00:15.605Z,25
2017-10-01T06:00:56.147Z,25
2017-10-01T06:01:36.687Z,30
2017-10-01T06:02:17.211Z,30
2017-10-01T06:02:57.762Z,30
2017-10-01T06:03:38.416Z,30
2017-10-01T06:05:52.660Z,35
2017-10-01T06:06:33.163Z,35
2017-10-01T06:07:13.805Z,35
2017-10-01T06:07:54.391Z,35
2017-10-01T06:08:35.107Z,35
2017-10-01T06:09:15.620Z,40
2017-10-01T06:09:56.140Z,40
2017-10-01T06:10:36.722Z,40
2017-10-01T06:11:17.276Z,40
2017-10-01T06:11:57.840Z,40
2017-10-01T06:12:38.379Z,40
2017-10-01T06:13:18.925Z,40
2017-10-01T06:13:59.524Z,40
2017-10-01T06:14:40.039Z,40
2017-10-01T06:15:20.747Z,40
2017-10-01T06:16:01.127Z,45
2017-10-01T06:16:41.759Z,45
2017-10-01T06:17:22.328Z,45
2017-10-01T06:18:02.855Z,45
2017-10-01T06:18:43.415Z,45
2017-10-01T06:19:23.926Z,50
2017-10-01T06:20:04.445Z,50
2017-10-01T06:20:44.957Z,50
2017-10-01T06:21:25.462Z,50
2017-10-01T06:22:05.962Z,50
2017-10-01T06:22:46.456Z,50
2017-10-01T06:23:26.983Z,50
2017-10-01T06:24:07.991Z,50
2017-10-01T06:24:48.538Z,50
2017-10-01T06:25:29.043Z,50
2017-10-01T06:26:09.633Z,55
2017-10-01T06:26:50.159Z,60
2017-10-01T06:27:30.783Z,60
2017-10-01T06:28:11.294Z,60
2017-10-01T06:28:51.806Z,60
2017-10-01T06:29:32.313Z,60
2017-10-01T06:30:12.810Z,60
2017-10-01T06:30:53.340Z,60
2017-10-01T06:31:33.893Z,60
2017-10-01T06:32:14.399Z,60
2017-10-01T06:32:54.905Z,60
2017-10-01T06:33:35.427Z,60
2017-10-01T06:34:15.976Z,60
2017-10-01T06:34:56.466Z,60
2017-10-01T06:35:36.991Z,60
2017-10-01T06:36:17.469Z,60
2017-10-01T06:36:57.973Z,60
2017-10-01T06:37:38.474Z,60
2017-10-01T06:38:19.000Z,60
2017-10-01T06:38:59.550Z,60
2017-10-01T06:39:40.023Z,60
2017-10-01T06:40:20.528Z,60
2017-10-01T06:41:01.105Z,60
2017-10-01T06:41:42.379Z,55
2017-10-01T06:42:22.944Z,55
2017-10-01T06:43:03.780Z,55
2017-10-01T06:43:44.555Z,55
2017-10-01T06:44:25.276Z,55
2017-10-01T06:45:05.934Z,55
2017-10-01T06:45:46.674Z,55
2017-10-01T06:46:27.347Z,55
2017-10-01T06:47:07.998Z,55
2017-10-01T06:47:48.859Z,60
2017-10-01T06:48:29.720Z,60
2017-10-01T06:49:10.479Z,60
2017-10-01T06:49:51.090Z,60
2017-10-01T06:50:31.868Z,60
2017-10-01T06:51:12.846Z,60
2017-10-01T06:51:53.855Z,65
2017-10-01T06:52:34.540Z,65
2017-10-01T06:53:15.444Z,65
2017-10-01T06:53:55.926Z,70
2017-10-01T06:54:36.442Z,70
2017-10-01T06:55:16.964Z,70
2017-10-01T06:55:57.507Z,70
2017-10-01T06:56:38.009Z,75
2017-10-01T06:57:18.531Z,75
2017-10-01T06:57:59.020Z,75
2017-10-01T06:58:39.553Z,75
2017-10-01T06:59:20.044Z,75
2017-10-01T07:00:00.546Z,75
2017-10-01T07:00:41.073Z,75
2017-10-01T07:01:21.604Z,75
2017-10-01T07:02:02.148Z,75
2017-10-01T07:02:42.660Z,75
2017-10-01T07:03:23.187Z,75
2017-10-01T07:04:03.707Z,75
2017-10-01T07:04:44.178Z,80
2017-10-01T07:05:24.706Z,80
2017-10-01T07:06:05.279Z,80
2017-10-01T07:06:45.753Z,80
2017-10-01T07:07:26.294Z,80
2017-10-01T07:08:06.797Z,80
2017-10-01T07:08:47.300Z,80
2017-10-01T07:09:27.823Z,80
2017-10-01T07:10:08.328Z,80
2017-10-01T07:10:48.889Z,85
2017-10-01T07:11:29.406Z,85
2017-10-01T07:12:09.920Z,85
2017-10-01T07:12:50.437Z,85
2017-10-01T07:13:30.932Z,85
2017-10-01T07:14:11.448Z,85
2017-10-01T07:14:51.985Z,85
2017-10-01T07:15:32.510Z,85
2017-10-01T07:16:13.053Z,85
2017-10-01T07:16:53.573Z,90
2017-10-01T07:17:34.081Z,90
2017-10-01T07:18:14.597Z,90
2017-10-01T07:18:55.132Z,90
2017-10-01T07:19:35.654Z,90
2017-10-01T07:20:16.236Z,95
2017-10-01T07:20:56.690Z,95
2017-10-01T07:21:37.220Z,95
2017-10-01T07:22:17.739Z,100
2017-10-01T07:22:58.240Z,100
2017-10-01T07:23:38.750Z,100
2017-10-01T07:24:19.265Z,100
2017-10-01T07:24:59.774Z,100
2017-10-01T07:25:40.314Z,100
2017-10-01T07:26:20.790Z,100
2017-10-01T07:27:01.315Z,100
2017-10-01T07:27:41.842Z,100
2017-10-01T07:28:22.362Z,100
2017-10-01T07:29:02.894Z,100
2017-10-01T07:29:43.426Z,100
2017-10-01T07:30:23.956Z,100
2017-10-01T07:31:04.522Z,100
2017-10-01T07:31:45.011Z,100
2017-10-01T07:32:25.545Z,95
2017-10-01T07:33:06.080Z,100
2017-10-01T07:33:46.652Z,100
2017-10-01T07:34:27.194Z,100
2017-10-01T07:35:07.719Z,100
2017-10-01T07:35:48.272Z,105
2017-10-01T07:36:28.735Z,105
2017-10-01T07:38:42.971Z,105
2017-10-01T07:39:23.483Z,105
2017-10-01T07:40:03.981Z,105
2017-10-01T07:40:44.538Z,105
2017-10-01T07:41:25.105Z,105
2017-10-01T07:42:05.563Z,105
2017-10-01T07:42:46.113Z,105
2017-10-01T07:43:26.648Z,105
2017-10-01T07:44:07.180Z,110
2017-10-01T07:44:47.686Z,110
2017-10-01T07:45:28.211Z,110
2017-10-01T07:46:08.714Z,110
2017-10-01T07:46:49.283Z,110
2017-10-01T07:47:29.774Z,110
2017-10-01T07:48:10.313Z,110
2017-10-01T07:48:50.866Z,115
2017-10-01T07:49:31.398Z,115
2017-10-01T07:50:11.912Z,115
2017-10-01T07:50:52.442Z,115
2017-10-01T07:51:32.968Z,115
2017-10-01T07:52:13.483Z,115
2017-10-01T07:52:54.022Z,115
2017-10-01T07:53:34.552Z,120
2017-10-01T07:54:15.089Z,120
2017-10-01T07:54:55.620Z,120
2017-10-01T07:55:36.139Z,120
2017-10-01T07:56:16.678Z,120
2017-10-01T07:56:57.250Z,120
2017-10-01T07:57:37.807Z,120
2017-10-01T07:58:18.326Z,120
2017-10-01T07:58:58.848Z,120
2017-10-01T07:59:39.353Z,125
2017-10-01T08:00:19.968Z,125
2017-10-01T08:01:00.476Z,125
2017-10-01T08:01:41.731Z,125
2017-10-01T08:02:22.595Z,125
2017-10-01T08:03:03.122Z,130
2017-10-01T08:03:43.660Z,130
2017-10-01T08:04:24.177Z,130
2017-10-01T08:05:04.725Z,135
2017-10-01T08:05:45.228Z,130
2017-10-01T08:06:25.776Z,135
2017-10-01T08:07:07.864Z,135
2017-10-01T08:07:48.401Z,135
2017-10-01T08:08:28.933Z,135
2017-10-01T08:09:09.457Z,135
2017-10-01T08:09:50.391Z,130
2017-10-01T08:10:30.932Z,130
2017-10-01T08:11:11.450Z,130
2017-10-01T08:11:52.070Z,130
2017-10-01T08:12:32.575Z,130
2017-10-01T08:13:13.103Z,130
2017-10-01T08:13:53.617Z,135
2017-10-01T08:14:34.114Z,135
2017-10-01T08:15:14.633Z,135
2017-10-01T08:15:55.147Z,135
2017-10-01T08:16:35.721Z,135
2017-10-01T08:17:16.220Z,135
2017-10-01T08:17:57.432Z,135
2017-10-01T08:18:37.996Z,135
2017-10-01T08:19:18.522Z,135
2017-10-01T08:19:59.046Z,135
2017-10-01T08:20:39.575Z,140
2017-10-01T08:21:20.066Z,140
2017-10-01T08:22:00.626Z,140
2017-10-01T08:22:41.209Z,140
2017-10-01T08:23:21.748Z,140
2017-10-01T08:24:02.260Z,145
2017-10-01T08:24:42.945Z,145
2017-10-01T08:25:23.607Z,145
2017-10-01T08:26:04.223Z,145
2017-10-01T08:26:44.839Z,145
2017-10-01T08:27:25.349Z,145
2017-10-01T08:28:07.833Z,155
2017-10-01T08:28:48.321Z,150
2017-10-01T08:29:30.648Z,150
2017-10-01T08:30:11.131Z,150
2017-10-01T08:30:51.674Z,150
2017-10-01T08:31:32.200Z,150
2017-10-01T08:32:12.682Z,150
2017-10-01T08:32:53.193Z,155
2017-10-01T08:33:35.613Z,155
2017-10-01T08:34:16.147Z,155
2017-10-01T08:34:56.704Z,155
2017-10-01T08:35:37.228Z,155
2017-10-01T08:36:17.719Z,160
2017-10-01T08:36:58.212Z,160
2017-10-01T08:37:38.773Z,160
2017-10-01T08:38:19.262Z,160
2017-10-01T08:38:59.801Z,160
2017-10-01T08:39:40.323Z,170
2017-10-01T08:40:20.875Z,165
2017-10-01T08:41:01.400Z,165
2017-10-01T08:41:41.933Z,165
2017-10-01T08:42:22.469Z,170
2017-10-01T08:43:03.008Z,170
2017-10-01T08:43:43.556Z,170
2017-10-01T08:44:24.094Z,180
2017-10-01T08:45:08.542Z,185
2017-10-01T08:45:50.557Z,190
2017-10-01T08:46:31.085Z,210
2017-10-01T08:47:11.636Z,250
2017-10-01T08:47:52.217Z,265
2017-10-01T08:48:32.745Z,240
2017-10-01T08:49:13.286Z,255
2017-10-01T08:49:53.838Z,225
2017-10-01T08:50:34.328Z,210
2017-10-01T08:51:15.206Z,205
2017-10-01T08:51:55.777Z,205
2017-10-01T08:52:36.305Z,210
2017-10-01T08:53:16.796Z,230
2017-10-01T08:53:57.347Z,230
2017-10-01T08:54:37.885Z,260
2017-10-01T08:55:18.398Z,280
2017-10-01T08:55:58.898Z,425
2017-10-01T08:56:39.422Z,720
2017-10-01T08:57:20.006Z,975
2017-10-01T08:58:00.575Z,1275
2017-10-01T08:58:41.103Z,1590
2017-10-01T08:59:22.157Z,1810
2017-10-01T09:00:04.467Z,1830
2017-10-01T09:00:44.947Z,1850
2017-10-01T09:01:25.467Z,1880
2017-10-01T09:02:05.977Z,1860
2017-10-01T09:02:46.505Z,1860
2017-10-01T09:03:28.831Z,1790
2017-10-01T09:05:43.057Z,1840
2017-10-01T09:06:23.564Z,1900
2017-10-01T09:07:04.098Z,1860
2017-10-01T09:07:44.642Z,1830
2017-10-01T09:08:25.176Z,1795
2017-10-01T09:09:05.789Z,1755
2017-10-01T09:09:46.295Z,1720
2017-10-01T09:10:26.807Z,1740
2017-10-01T09:11:07.499Z,1790
2017-10-01T09:11:48.026Z,1780
2017-10-01T09:12:28.547Z,1790
2017-10-01T09:13:09.081Z,1815
2017-10-01T09:13:49.615Z,1900
2017-10-01T09:14:30.264Z,1960
2017-10-01T09:15:11.040Z,1930
2017-10-01T09:17:31.550Z,1975
2017-10-01T09:18:12.388Z,1975
2017-10-01T09:18:52.757Z,1940
2017-10-01T09:19:34.400Z,1960
2017-10-01T09:20:16.814Z,1980
2017-10-01T09:20:59.226Z,2015
2017-10-01T09:21:41.054Z,2015
2017-10-01T09:22:23.087Z,1995
2017-10-01T09:23:05.341Z,1925
2017-10-01T09:23:46.007Z,1875
2017-10-01T09:24:26.690Z,1895
2017-10-01T09:25:07.253Z,1950
2017-10-01T09:25:47.941Z,2030
2017-10-01T09:26:28.470Z,2095
2017-10-01T09:27:09.104Z,2090
2017-10-01T09:27:49.752Z,2060
2017-10-01T09:28:30.252Z,2045
2017-10-01T09:29:10.805Z,2025
2017-10-01T09:29:51.420Z,2050
2017-10-01T09:30:31.972Z,2070
2017-10-01T09:31:12.567Z,2115
2017-10-01T09:31:53.245Z,2115
2017-10-01T09:32:33.762Z,2085
2017-10-01T09:33:14.355Z,2025
2017-10-01T09:33:54.893Z,1995
2017-10-01T09:34:35.414Z,2000
2017-10-01T09:35:15.958Z,2015
2017-10-01T09:35:56.500Z,1975
2017-10-01T09:36:37.007Z,2005
2017-10-01T09:37:17.698Z,1985
2017-10-01T09:37:58.376Z,1945
2017-10-01T09:38:38.902Z,1925
2017-10-01T09:39:19.716Z,1820
2017-10-01T09:40:00.558Z,1825
2017-10-01T09:40:41.224Z,1900
2017-10-01T09:41:21.747Z,1995
2017-10-01T09:42:02.528Z,2040
2017-10-01T09:42:46.473Z,2065
2017-10-01T09:43:26.979Z,2050
2017-10-01T09:44:07.647Z,2035
2017-10-01T09:44:48.191Z,2065
2017-10-01T09:45:29.505Z,2075
2017-10-01T09:46:11.632Z,2170
2017-10-01T09:46:53.460Z,2180
2017-10-01T09:47:35.250Z,2180
2017-10-01T09:48:17.216Z,2205
2017-10-01T09:48:59.017Z,2160
2017-10-01T09:49:39.620Z,2200
2017-10-01T09:50:20.160Z,2265